Time;durP1;ratioP1;P1;durP2;ratioP2;P2;SDS_P1;SDS_P2;PMS_P1;PMS_P2;Temp;Humidity;BMP_temperature;BMP_pressure;BME280_temperature;BME280_humidity;BME280_pressure;Samples;Min_cycle;Max_cycle;Signal;HPM_P1;HPM_P2
2020/12/29 00:00:37;;;;;;;;;;;;;;;;;;5073066;28;19943;-68
2020/12/29 00:03:03;;;;;;;;;;;;;;;;;;5073209;28;20007;-69
2020/12/29 00:05:29;;;;;;;;;;;;;;;;;;5073104;28;20432;-68
2020/12/29 00:07:54;;;;;;;;;;;;;;;;;;5070337;28;19923;-67
2020/12/29 00:10:20;;;;;;;;;;;;;;;;;;5062799;28;20006;-68
2020/12/29 00:12:46;;;;;;;;;;;;;;;;;;5071261;28;20029;-68
2020/12/29 00:15:12;;;;;;;;;;;;;;;;;;5057101;28;20003;-69
2020/12/29 00:17:38;;;;;;;;;;;;;;;;;;5052478;28;20476;-68
2020/12/29 00:20:04;;;;;;;;;;;;;;;;;;5052821;28;19919;-70
2020/12/29 00:22:31;;;;;;;;;;;;;;;;;;5051138;28;20004;-69
2020/12/29 00:24:57;;;;;;;;;;;;;;;;;;5051203;28;20005;-69
2020/12/29 00:27:23;;;;;;;;;;;;;;;;;;5050855;28;20415;-68
2020/12/29 00:29:49;;;;;;;;;;;;;;;;;;5052304;28;19908;-69
2020/12/29 00:32:14;;;;;;;;;;;;;;;;;;5052432;28;19950;-69
2020/12/29 00:34:40;;;;;;;;;;;;;;;;;;5052670;28;19962;-69
2020/12/29 00:37:06;;;;;;;;;;;;;;;;;;5051332;28;20436;-69
2020/12/29 00:39:32;;;;;;;;;;;;;;;;;;5060263;28;19913;-69
2020/12/29 00:41:58;;;;;;;;;;;;;;;;;;5074218;22;19916;-76
2020/12/29 00:44:24;;;;;;;;;;;;;;;;;;5071721;28;20028;-77
2020/12/29 00:46:50;;;;;;;;;;;;;;;;;;5054739;28;19964;-77
2020/12/29 00:49:16;;;;;;;;;;;;;;;;;;5054573;28;19958;-77
2020/12/29 00:51:42;;;;;;;;;;;;;;;;;;5065701;28;20332;-77
2020/12/29 00:54:08;;;;;;;;;;;;;;;;;;5065839;28;19917;-76
2020/12/29 00:56:33;;;;;;;;;;;;;;;;;;5056995;28;19909;-76
2020/12/29 00:58:59;;;;;;;;;;;;;;;;;;5074542;28;19912;-77
2020/12/29 01:01:25;;;;;;;;;;;;;;;;;;5056539;28;19908;-77
2020/12/29 01:03:51;;;;;;;;;;;;;;;;;;5075646;28;20267;-76
2020/12/29 01:06:17;;;;;;;;;;;;;;;;;;5055606;28;19908;-77
2020/12/29 01:08:43;;;;;;;;;;;;;;;;;;5064616;28;19952;-77
2020/12/29 01:11:09;;;;;;;;;;;;;;;;;;5046354;28;20741;-77
2020/12/29 01:13:35;;;;;;;;;;;;;;;;;;5054186;28;20004;-76
2020/12/29 01:16:00;;;;;;;;;;;;;;;;;;5072362;28;20015;-76
2020/12/29 01:18:26;;;;;;;;;;;;;;;;;;5054413;28;20378;-77
2020/12/29 01:20:52;;;;;;;;;;;;;;;;;;5054659;28;20011;-76
2020/12/29 01:23:18;;;;;;;;;;;;;;;;;;5054069;28;19917;-77
2020/12/29 01:25:44;;;;;;;;;;;;;;;;;;5054579;28;19933;-76
2020/12/29 01:28:10;;;;;;;;;;;;;;;;;;5054292;28;19916;-77
2020/12/29 01:30:36;;;;;;;;;;;;;;;;;;5054255;28;19948;-77
2020/12/29 01:33:02;;;;;;;;;;;;;;;;;;5056624;28;19931;-77
2020/12/29 01:35:28;;;;;;;;;;;;;;;;;;5056893;28;19958;-77
2020/12/29 01:37:54;;;;;;;;;;;;;;;;;;5063970;28;19931;-77
2020/12/29 01:40:20;;;;;;;;;;;;;;;;;;5074447;28;20262;-77
2020/12/29 01:42:46;;;;;;;;;;;;;;;;;;5056443;28;19916;-77
2020/12/29 01:45:12;;;;;;;;;;;;;;;;;;5072553;28;19955;-77
2020/12/29 01:47:38;;;;;;;;;;;;;;;;;;5055095;28;20357;-77
2020/12/29 01:50:04;;;;;;;;;;;;;;;;;;5054765;28;19970;-77
2020/12/29 01:52:31;;;;;;;;;;;;;;;;;;5054727;28;19912;-77
2020/12/29 01:54:57;;;;;;;;;;;;;;;;;;5072586;28;19920;-77
2020/12/29 01:57:23;;;;;;;;;;;;;;;;;;5054913;28;19908;-77
2020/12/29 01:59:50;;;;;;;;;;;;;;;;;;5072785;28;20354;-77
2020/12/29 02:02:15;;;;;;;;;;;;;;;;;;5072991;28;19909;-77
2020/12/29 02:04:41;;;;;;;;;;;;;;;;;;5054587;28;19991;-77
2020/12/29 02:07:07;;;;;;;;;;;;;;;;;;5046437;28;19970;-77
2020/12/29 02:09:33;;;;;;;;;;;;;;;;;;5041474;28;19956;-77
2020/12/29 02:11:59;;;;;;;;;;;;;;;;;;5034711;28;19959;-77
2020/12/29 02:14:25;;;;;;;;;;;;;;;;;;5034572;28;19948;-77
2020/12/29 02:16:51;;;;;;;;;;;;;;;;;;5034466;28;20395;-77
2020/12/29 02:19:17;;;;;;;;;;;;;;;;;;5041692;28;19994;-77
2020/12/29 02:21:43;;;;;;;;;;;;;;;;;;5048592;28;20001;-77
2020/12/29 02:24:09;;;;;;;;;;;;;;;;;;5055555;28;19909;-77
2020/12/29 02:26:35;;;;;;;;;;;;;;;;;;5038261;28;20000;-77
2020/12/29 02:29:00;;;;;;;;;;;;;;;;;;5038537;28;19919;-77
2020/12/29 02:31:26;;;;;;;;;;;;;;;;;;5038799;28;20095;-77
2020/12/29 02:33:52;;;;;;;;;;;;;;;;;;5038617;28;20003;-78
2020/12/29 02:36:18;;;;;;;;;;;;;;;;;;5059260;28;19909;-78
2020/12/29 02:38:44;;;;;;;;;;;;;;;;;;5050282;28;19909;-78
2020/12/29 02:41:10;;;;;;;;;;;;;;;;;;5059073;28;19912;-78
2020/12/29 02:43:36;;;;;;;;;;;;;;;;;;5058796;28;20012;-78
2020/12/29 02:46:02;;;;;;;;;;;;;;;;;;5059145;28;19916;-77
2020/12/29 02:48:28;;;;;;;;;;;;;;;;;;5076524;28;19971;-77
2020/12/29 02:50:54;;;;;;;;;;;;;;;;;;5059179;28;19908;-78
2020/12/29 02:53:19;;;;;;;;;;;;;;;;;;5076723;28;19978;-78
2020/12/29 02:55:45;;;;;;;;;;;;;;;;;;5059337;28;19958;-78
2020/12/29 02:58:11;;;;;;;;;;;;;;;;;;5078205;28;19916;-78
2020/12/29 03:00:37;;;;;;;;;;;;;;;;;;5058519;28;19912;-78
2020/12/29 03:03:03;;;;;;;;;;;;;;;;;;5058134;28;19916;-77
2020/12/29 03:05:29;;;;;;;;;;;;;;;;;;5076102;28;19909;-77
2020/12/29 03:07:55;;;;;;;;;;;;;;;;;;5056399;28;19923;-77
2020/12/29 03:10:21;;;;;;;;;;;;;;;;;;5067863;28;20306;-77
2020/12/29 03:12:47;;;;;;;;;;;;;;;;;;5058229;28;19926;-77
2020/12/29 03:15:13;;;;;;;;;;;;;;;;;;5057593;28;19908;-77
2020/12/29 03:17:39;;;;;;;;;;;;;;;;;;5075031;28;20387;-77
2020/12/29 03:20:04;;;;;;;;;;;;;;;;;;5075306;28;20002;-77
2020/12/29 03:22:30;;;;;;;;;;;;;;;;;;5057297;28;19940;-77
2020/12/29 03:24:56;;;;;;;;;;;;;;;;;;5075064;28;19936;-77
2020/12/29 03:27:22;;;;;;;;;;;;;;;;;;5074841;28;19916;-77
2020/12/29 03:29:48;;;;;;;;;;;;;;;;;;5056972;28;19908;-77
2020/12/29 03:32:14;;;;;;;;;;;;;;;;;;5075066;28;19908;-77
2020/12/29 03:34:40;;;;;;;;;;;;;;;;;;5057069;28;20366;-77
2020/12/29 03:37:06;;;;;;;;;;;;;;;;;;5053710;28;19909;-77
2020/12/29 03:39:32;;;;;;;;;;;;;;;;;;5066394;28;19938;-77
2020/12/29 03:41:58;;;;;;;;;;;;;;;;;;5056571;28;19908;-77
2020/12/29 03:44:23;;;;;;;;;;;;;;;;;;5047982;28;19917;-77
2020/12/29 03:46:49;;;;;;;;;;;;;;;;;;5066346;28;19959;-77
2020/12/29 03:49:15;;;;;;;;;;;;;;;;;;5056131;28;19943;-76
2020/12/29 03:51:41;;;;;;;;;;;;;;;;;;5057033;28;19913;-77
2020/12/29 03:54:07;;;;;;;;;;;;;;;;;;5056421;28;19909;-77
2020/12/29 03:56:36;;;;;;;;;;;;;;;;;;5056703;28;19958;-77
2020/12/29 03:59:02;;;;;;;;;;;;;;;;;;5074189;28;20393;-77
2020/12/29 04:01:28;;;;;;;;;;;;;;;;;;5056840;28;20397;-77
2020/12/29 04:03:54;;;;;;;;;;;;;;;;;;5058943;28;19908;-77
2020/12/29 04:06:20;;;;;;;;;;;;;;;;;;5057876;28;19912;-77
2020/12/29 04:08:46;;;;;;;;;;;;;;;;;;5056961;28;19920;-77
2020/12/29 04:11:12;;;;;;;;;;;;;;;;;;5051284;28;20031;-77
2020/12/29 04:13:37;;;;;;;;;;;;;;;;;;5053598;28;19967;-77
2020/12/29 04:16:03;;;;;;;;;;;;;;;;;;5053440;28;19915;-77
2020/12/29 04:18:29;;;;;;;;;;;;;;;;;;5055122;28;19919;-78
2020/12/29 04:20:55;;;;;;;;;;;;;;;;;;5053532;28;19936;-78
2020/12/29 04:23:21;;;;;;;;;;;;;;;;;;5054183;28;19952;-78
2020/12/29 04:25:47;;;;;;;;;;;;;;;;;;5054516;28;19916;-78
2020/12/29 04:28:13;;;;;;;;;;;;;;;;;;5056621;28;20386;-78
2020/12/29 04:30:39;;;;;;;;;;;;;;;;;;5056025;28;19913;-78
2020/12/29 04:33:05;;;;;;;;;;;;;;;;;;5055512;28;19909;-78
2020/12/29 04:35:31;;;;;;;;;;;;;;;;;;5055744;28;19916;-78
2020/12/29 04:37:57;;;;;;;;;;;;;;;;;;5050837;28;20393;-78
2020/12/29 04:40:23;;;;;;;;;;;;;;;;;;5068907;28;19923;-78
2020/12/29 04:42:49;;;;;;;;;;;;;;;;;;5058939;28;19917;-78
2020/12/29 04:45:15;;;;;;;;;;;;;;;;;;5061665;28;19909;-79
2020/12/29 04:47:41;;;;;;;;;;;;;;;;;;5057824;28;19924;-78
2020/12/29 04:50:07;;;;;;;;;;;;;;;;;;5059290;28;19908;-77
2020/12/29 04:52:32;;;;;;;;;;;;;;;;;;5058578;28;19973;-78
2020/12/29 04:54:58;;;;;;;;;;;;;;;;;;5058549;28;19916;-78
2020/12/29 04:57:24;;;;;;;;;;;;;;;;;;5058360;28;19909;-78
2020/12/29 04:59:50;;;;;;;;;;;;;;;;;;5076810;28;19908;-78
2020/12/29 05:02:16;;;;;;;;;;;;;;;;;;5064916;28;19896;-78
2020/12/29 05:04:42;;;;;;;;;;;;;;;;;;5071912;28;19916;-78
2020/12/29 05:07:08;;;;;;;;;;;;;;;;;;5070880;28;19908;-79
2020/12/29 05:09:34;;;;;;;;;;;;;;;;;;5077659;28;19919;-78
2020/12/29 05:12:00;;;;;;;;;;;;;;;;;;5055931;28;20397;-78
2020/12/29 05:14:29;;;;;;;;;;;;;;;;;;5056071;28;19909;-78
2020/12/29 05:16:55;;;;;;;;;;;;;;;;;;5037867;28;20074;-78
2020/12/29 05:19:20;;;;;;;;;;;;;;;;;;5055951;28;19909;-78
2020/12/29 05:21:46;;;;;;;;;;;;;;;;;;5036898;28;19913;-78
2020/12/29 05:24:12;;;;;;;;;;;;;;;;;;5047135;28;19916;-78
2020/12/29 05:26:38;;;;;;;;;;;;;;;;;;5075650;28;19915;-78
2020/12/29 05:29:04;;;;;;;;;;;;;;;;;;5056582;28;19916;-78
2020/12/29 05:31:30;;;;;;;;;;;;;;;;;;5056758;28;19957;-79
2020/12/29 05:33:56;;;;;;;;;;;;;;;;;;5056972;28;19908;-78
2020/12/29 05:36:22;;;;;;;;;;;;;;;;;;5055939;28;19909;-78
2020/12/29 05:38:48;;;;;;;;;;;;;;;;;;5056231;28;20314;-79
2020/12/29 05:41:14;;;;;;;;;;;;;;;;;;5056579;28;19909;-78
2020/12/29 05:43:40;;;;;;;;;;;;;;;;;;5074524;28;19917;-79
2020/12/29 05:46:06;;;;;;;;;;;;;;;;;;5057090;28;19909;-78
2020/12/29 05:48:32;;;;;;;;;;;;;;;;;;5074967;28;19917;-79
2020/12/29 05:50:57;;;;;;;;;;;;;;;;;;5057078;28;19957;-79
2020/12/29 05:53:23;;;;;;;;;;;;;;;;;;5053401;28;19922;-79
2020/12/29 05:55:49;;;;;;;;;;;;;;;;;;5053157;28;19912;-79
2020/12/29 05:58:15;;;;;;;;;;;;;;;;;;5058152;28;19915;-79
2020/12/29 06:00:41;;;;;;;;;;;;;;;;;;5051876;28;19916;-79
2020/12/29 06:03:07;;;;;;;;;;;;;;;;;;5054137;28;19923;-79
2020/12/29 06:05:33;;;;;;;;;;;;;;;;;;5074451;28;19953;-78
2020/12/29 06:07:59;;;;;;;;;;;;;;;;;;5073909;28;20015;-79
2020/12/29 06:10:25;;;;;;;;;;;;;;;;;;5055978;28;19915;-79
2020/12/29 06:12:51;;;;;;;;;;;;;;;;;;5053683;28;20351;-79
2020/12/29 06:15:17;;;;;;;;;;;;;;;;;;5063194;22;19925;-70
2020/12/29 06:17:43;;;;;;;;;;;;;;;;;;5049880;28;19920;-69
2020/12/29 06:20:09;;;;;;;;;;;;;;;;;;5050029;28;19912;-70
2020/12/29 06:22:35;;;;;;;;;;;;;;;;;;5048587;28;19932;-69
2020/12/29 06:25:01;;;;;;;;;;;;;;;;;;5051041;28;19916;-69
2020/12/29 06:27:26;;;;;;;;;;;;;;;;;;5048925;28;19948;-69
2020/12/29 06:29:52;;;;;;;;;;;;;;;;;;5050747;28;20268;-70
2020/12/29 06:32:21;;;;;;;;;;;;;;;;;;5051065;28;20373;-70
2020/12/29 06:34:47;;;;;;;;;;;;;;;;;;5051082;28;19909;-70
2020/12/29 06:37:13;;;;;;;;;;;;;;;;;;5051105;28;20264;-70
2020/12/29 06:39:39;;;;;;;;;;;;;;;;;;5050853;28;19955;-70
2020/12/29 06:42:05;;;;;;;;;;;;;;;;;;5051063;28;19943;-70
2020/12/29 06:44:31;;;;;;;;;;;;;;;;;;5055224;28;19955;-70
2020/12/29 06:46:57;;;;;;;;;;;;;;;;;;5061306;28;20001;-70
2020/12/29 06:49:23;;;;;;;;;;;;;;;;;;5070335;28;20021;-71
2020/12/29 06:51:49;;;;;;;;;;;;;;;;;;5062462;28;20344;-70
2020/12/29 06:54:15;;;;;;;;;;;;;;;;;;5062454;28;20291;-71
2020/12/29 06:56:41;;;;;;;;;;;;;;;;;;5065989;28;19916;-68
2020/12/29 06:59:07;;;;;;;;;;;;;;;;;;5050362;28;19909;-71
2020/12/29 07:01:34;;;;;;;;;;;;;;;;;;5050703;28;19916;-71
2020/12/29 07:04:00;;;;;;;;;;;;;;;;;;5049361;28;19970;-71
2020/12/29 07:06:26;;;;;;;;;;;;;;;;;;5050605;28;19913;-70
2020/12/29 07:08:52;;;;;;;;;;;;;;;;;;5050556;28;20329;-70
2020/12/29 07:11:18;;;;;;;;;;;;;;;;;;5051812;28;19991;-70
2020/12/29 07:16:13;;;;;;;;;;;;;;;;;;5040534;28;20463;-71
2020/12/29 07:18:39;;;;;;;;;;;;;;;;;;5050545;28;19948;-71
2020/12/29 07:21:05;;;;;;;;;;;;;;;;;;5053897;28;19912;-71
2020/12/29 07:23:31;;;;;;;;;;;;;;;;;;5052597;28;19963;-71
2020/12/29 07:25:57;;;;;;;;;;;;;;;;;;5052632;28;19916;-71
2020/12/29 07:28:23;;;;;;;;;;;;;;;;;;5051913;28;19956;-71
2020/12/29 07:30:48;;;;;;;;;;;;;;;;;;5053561;28;20003;-71
2020/12/29 07:33:14;;;;;;;;;;;;;;;;;;5053602;28;19905;-70
2020/12/29 07:35:40;;;;;;;;;;;;;;;;;;5046290;28;19952;-71
2020/12/29 07:38:06;;;;;;;;;;;;;;;;;;5043114;28;19961;-72
2020/12/29 07:40:32;;;;;;;;;;;;;;;;;;5045195;28;20580;-71
2020/12/29 07:42:58;;;;;;;;;;;;;;;;;;5048765;28;20384;-70
2020/12/29 07:45:24;;;;;;;;;;;;;;;;;;5053560;28;19952;-71
2020/12/29 07:47:50;;;;;;;;;;;;;;;;;;5052328;28;19960;-71
2020/12/29 07:50:16;;;;;;;;;;;;;;;;;;5053219;28;19952;-71
2020/12/29 07:52:42;;;;;;;;;;;;;;;;;;5053068;28;19996;-71
2020/12/29 07:55:07;;;;;;;;;;;;;;;;;;5052014;28;19913;-71
2020/12/29 07:57:33;;;;;;;;;;;;;;;;;;5051446;28;19948;-70
2020/12/29 07:59:59;;;;;;;;;;;;;;;;;;5050743;28;19940;-70
2020/12/29 08:02:25;;;;;;;;;;;;;;;;;;5053897;28;19975;-71
2020/12/29 08:04:51;;;;;;;;;;;;;;;;;;5057824;28;20010;-69
2020/12/29 08:07:17;;;;;;;;;;;;;;;;;;5049928;28;19964;-71
2020/12/29 08:09:43;;;;;;;;;;;;;;;;;;5051122;28;20373;-71
2020/12/29 08:12:09;;;;;;;;;;;;;;;;;;5050800;28;20304;-71
2020/12/29 08:14:34;;;;;;;;;;;;;;;;;;5052267;28;20194;-71
2020/12/29 08:17:00;;;;;;;;;;;;;;;;;;5052209;28;19996;-70
2020/12/29 08:19:26;;;;;;;;;;;;;;;;;;5052766;28;20365;-70
2020/12/29 08:21:52;;;;;;;;;;;;;;;;;;5051378;28;19908;-71
2020/12/29 08:24:18;;;;;;;;;;;;;;;;;;5049663;28;19917;-71
2020/12/29 08:26:44;;;;;;;;;;;;;;;;;;5053054;28;20372;-70
2020/12/29 08:29:10;;;;;;;;;;;;;;;;;;5050546;28;19913;-71
2020/12/29 08:31:36;;;;;;;;;;;;;;;;;;5052444;28;20053;-70
2020/12/29 08:34:02;;;;;;;;;;;;;;;;;;5050904;28;20015;-71
2020/12/29 08:36:27;;;;;;;;;;;;;;;;;;5050976;28;19912;-71
2020/12/29 08:38:53;;;;;;;;;;;;;;;;;;5051664;28;19915;-71
2020/12/29 08:41:19;;;;;;;;;;;;;;;;;;5061686;28;19916;-71
2020/12/29 08:43:45;;;;;;;;;;;;;;;;;;5053856;28;20442;-70
2020/12/29 08:46:11;;;;;;;;;;;;;;;;;;5050124;28;20008;-71
2020/12/29 08:48:37;;;;;;;;;;;;;;;;;;5048403;28;19921;-70
2020/12/29 08:51:03;;;;;;;;;;;;;;;;;;5047262;28;19948;-69
2020/12/29 08:53:29;;;;;;;;;;;;;;;;;;5049732;28;19975;-72
2020/12/29 08:55:55;;;;;;;;;;;;;;;;;;5048335;28;19964;-69
2020/12/29 08:58:21;;;;;;;;;;;;;;;;;;5051829;28;19996;-69
2020/12/29 09:00:46;;;;;;;;;;;;;;;;;;5052311;28;20013;-68
2020/12/29 09:03:12;;;;;;;;;;;;;;;;;;5052049;28;19991;-72
2020/12/29 09:05:38;;;;;;;;;;;;;;;;;;5051568;28;19962;-72
2020/12/29 09:08:04;;;;;;;;;;;;;;;;;;5051198;28;20006;-72
2020/12/29 09:10:30;;;;;;;;;;;;;;;;;;5051100;28;19956;-72
2020/12/29 09:12:56;;;;;;;;;;;;;;;;;;5036738;28;20395;-72
2020/12/29 09:15:24;;;;;;;;;;;;;;;;;;5041202;28;20011;-72
2020/12/29 09:17:50;;;;;;;;;;;;;;;;;;5040888;28;19915;-72
2020/12/29 09:20:16;;;;;;;;;;;;;;;;;;5033329;28;19909;-72
2020/12/29 09:22:41;;;;;;;;;;;;;;;;;;5041878;28;19912;-72
2020/12/29 09:25:07;;;;;;;;;;;;;;;;;;5050130;28;20413;-72
2020/12/29 09:27:33;;;;;;;;;;;;;;;;;;5050060;28;19913;-72
2020/12/29 09:29:59;;;;;;;;;;;;;;;;;;5051999;28;19955;-72
2020/12/29 09:32:27;;;;;;;;;;;;;;;;;;5050399;28;19971;-71
2020/12/29 09:34:53;;;;;;;;;;;;;;;;;;5051103;28;20361;-71
2020/12/29 09:37:19;;;;;;;;;;;;;;;;;;5054007;28;19963;-71
2020/12/29 09:39:45;;;;;;;;;;;;;;;;;;5062217;28;19943;-71
2020/12/29 09:42:11;;;;;;;;;;;;;;;;;;5063018;28;19956;-72
2020/12/29 09:44:37;;;;;;;;;;;;;;;;;;5071320;28;19939;-72
2020/12/29 09:47:03;;;;;;;;;;;;;;;;;;5071565;28;19947;-71
2020/12/29 09:49:29;;;;;;;;;;;;;;;;;;5069877;28;19913;-72
2020/12/29 09:51:55;;;;;;;;;;;;;;;;;;5071139;28;19938;-71
2020/12/29 09:54:21;;;;;;;;;;;;;;;;;;5070997;28;19955;-71
2020/12/29 09:56:47;;;;;;;;;;;;;;;;;;5070039;28;20444;-71
2020/12/29 09:59:13;;;;;;;;;;;;;;;;;;5064560;28;19959;-71
2020/12/29 10:01:39;;;;;;;;;;;;;;;;;;5051151;28;19945;-72
2020/12/29 10:04:04;;;;;;;;;;;;;;;;;;5051391;28;19909;-72
2020/12/29 10:06:31;;;;;;;;;;;;;;;;;;5054902;28;19909;-70
2020/12/29 10:08:57;;;;;;;;;;;;;;;;;;5062489;28;20394;-71
2020/12/29 10:11:22;;;;;;;;;;;;;;;;;;5071365;28;19909;-73
2020/12/29 10:13:48;;;;;;;;;;;;;;;;;;5070002;28;19958;-70
2020/12/29 10:16:14;;;;;;;;;;;;;;;;;;5070019;28;19913;-71
2020/12/29 10:18:40;;;;;;;;;;;;;;;;;;5071080;28;19963;-70
2020/12/29 10:21:06;;;;;;;;;;;;;;;;;;5071222;28;19916;-71
2020/12/29 10:23:32;;;;;;;;;;;;;;;;;;5070709;28;19905;-70
2020/12/29 10:25:58;;;;;;;;;;;;;;;;;;5061610;28;20408;-71
2020/12/29 10:28:24;;;;;;;;;;;;;;;;;;5049458;28;20086;-72
2020/12/29 10:30:50;;;;;;;;;;;;;;;;;;5051089;28;19909;-71
2020/12/29 10:33:16;;;;;;;;;;;;;;;;;;5050998;28;20280;-69
2020/12/29 10:35:42;;;;;;;;;;;;;;;;;;5050605;28;19909;-70
2020/12/29 10:38:08;;;;;;;;;;;;;;;;;;5060049;28;19912;-71
2020/12/29 10:40:34;;;;;;;;;;;;;;;;;;5055346;28;19913;-71
2020/12/29 10:42:59;;;;;;;;;;;;;;;;;;5050632;28;19986;-70
2020/12/29 10:45:25;;;;;;;;;;;;;;;;;;5048712;28;20047;-70
2020/12/29 10:47:51;;;;;;;;;;;;;;;;;;5054410;28;20544;-71
2020/12/29 10:50:17;;;;;;;;;;;;;;;;;;5054482;28;20002;-71
2020/12/29 10:52:43;;;;;;;;;;;;;;;;;;5050618;28;19985;-70
2020/12/29 10:55:09;;;;;;;;;;;;;;;;;;5052142;28;19916;-70
2020/12/29 10:57:35;;;;;;;;;;;;;;;;;;5053313;28;19915;-70
2020/12/29 11:00:01;;;;;;;;;;;;;;;;;;5054623;28;19962;-70
2020/12/29 11:02:27;;;;;;;;;;;;;;;;;;5052208;28;20324;-70
2020/12/29 11:04:53;;;;;;;;;;;;;;;;;;5055271;28;20002;-70
2020/12/29 11:07:19;;;;;;;;;;;;;;;;;;5073317;28;19917;-71
2020/12/29 11:09:44;;;;;;;;;;;;;;;;;;5068411;28;19908;-71
2020/12/29 11:12:10;;;;;;;;;;;;;;;;;;5059159;28;19952;-71
2020/12/29 11:14:36;;;;;;;;;;;;;;;;;;5054135;28;19956;-71
2020/12/29 11:17:02;;;;;;;;;;;;;;;;;;5053255;28;20311;-71
2020/12/29 11:19:28;;;;;;;;;;;;;;;;;;5054065;28;19909;-71
2020/12/29 11:21:54;;;;;;;;;;;;;;;;;;5053613;28;19917;-70
2020/12/29 11:24:20;;;;;;;;;;;;;;;;;;5053944;28;19948;-71
2020/12/29 11:26:46;;;;;;;;;;;;;;;;;;5050742;28;19991;-71
2020/12/29 11:29:12;;;;;;;;;;;;;;;;;;5035565;28;20019;-72
2020/12/29 11:31:38;;;;;;;;;;;;;;;;;;5032631;28;19980;-71
2020/12/29 11:34:03;;;;;;;;;;;;;;;;;;5033825;28;19960;-71
2020/12/29 11:36:29;;;;;;;;;;;;;;;;;;5041809;28;20012;-69
2020/12/29 11:38:55;;;;;;;;;;;;;;;;;;5061402;28;20592;-70
2020/12/29 11:41:21;;;;;;;;;;;;;;;;;;5063269;28;19921;-70
2020/12/29 11:43:47;;;;;;;;;;;;;;;;;;5072254;28;19977;-72
2020/12/29 11:46:13;;;;;;;;;;;;;;;;;;5069067;28;20383;-70
2020/12/29 11:48:39;;;;;;;;;;;;;;;;;;5045586;28;19978;-70
2020/12/29 11:51:05;;;;;;;;;;;;;;;;;;5052149;28;19995;-71
2020/12/29 11:53:31;;;;;;;;;;;;;;;;;;5053701;28;19966;-70
2020/12/29 11:55:57;;;;;;;;;;;;;;;;;;5052060;28;20183;-70
2020/12/29 11:58:23;;;;;;;;;;;;;;;;;;5052981;28;20380;-70
2020/12/29 12:00:48;;;;;;;;;;;;;;;;;;5053368;28;19959;-69
2020/12/29 12:03:14;;;;;;;;;;;;;;;;;;5051906;28;19960;-69
2020/12/29 12:05:40;;;;;;;;;;;;;;;;;;5051765;28;19909;-70
2020/12/29 12:08:06;;;;;;;;;;;;;;;;;;5051536;28;19920;-70
2020/12/29 12:10:32;;;;;;;;;;;;;;;;;;5061065;28;19915;-71
2020/12/29 12:12:58;;;;;;;;;;;;;;;;;;5065637;28;19932;-70
2020/12/29 12:15:24;;;;;;;;;;;;;;;;;;5064207;28;19917;-70
2020/12/29 12:17:50;;;;;;;;;;;;;;;;;;5073379;28;19909;-70
2020/12/29 12:20:16;;;;;;;;;;;;;;;;;;5058844;28;20407;-69
2020/12/29 12:22:42;;;;;;;;;;;;;;;;;;5056118;28;19985;-69
2020/12/29 12:25:08;;;;;;;;;;;;;;;;;;5074140;28;19920;-71
2020/12/29 12:27:33;;;;;;;;;;;;;;;;;;5075102;28;19932;-71
2020/12/29 12:29:59;;;;;;;;;;;;;;;;;;5057161;28;19909;-70
2020/12/29 12:32:25;;;;;;;;;;;;;;;;;;5052852;28;19916;-70
2020/12/29 12:34:51;;;;;;;;;;;;;;;;;;5052834;28;19913;-71
2020/12/29 12:37:17;;;;;;;;;;;;;;;;;;5044972;28;19913;-70
2020/12/29 12:39:43;;;;;;;;;;;;;;;;;;5052675;28;19944;-71
2020/12/29 12:42:09;;;;;;;;;;;;;;;;;;5051178;28;19952;-70
2020/12/29 12:44:35;;;;;;;;;;;;;;;;;;5043968;28;19955;-71
2020/12/29 12:47:01;;;;;;;;;;;;;;;;;;5050623;28;19915;-70
2020/12/29 12:49:27;;;;;;;;;;;;;;;;;;5051313;28;20569;-70
2020/12/29 12:51:53;;;;;;;;;;;;;;;;;;5045018;28;19920;-70
2020/12/29 12:54:19;;;;;;;;;;;;;;;;;;5049433;28;19955;-70
2020/12/29 12:56:45;;;;;;;;;;;;;;;;;;5052159;28;19909;-70
2020/12/29 12:59:11;;;;;;;;;;;;;;;;;;5051975;28;19924;-69
2020/12/29 13:01:37;;;;;;;;;;;;;;;;;;5051959;28;20668;-69
2020/12/29 13:04:03;;;;;;;;;;;;;;;;;;5051804;28;19913;-69
2020/12/29 13:06:28;;;;;;;;;;;;;;;;;;5052327;28;19915;-70
2020/12/29 13:08:54;;;;;;;;;;;;;;;;;;5055060;28;20373;-70
2020/12/29 13:11:20;;;;;;;;;;;;;;;;;;5054847;28;19913;-70
2020/12/29 13:13:46;;;;;;;;;;;;;;;;;;5050530;28;19916;-70
2020/12/29 13:16:12;;;;;;;;;;;;;;;;;;5051455;28;19966;-70
2020/12/29 13:18:38;;;;;;;;;;;;;;;;;;5051396;28;20365;-69
2020/12/29 13:21:04;;;;;;;;;;;;;;;;;;5051783;28;19957;-71
2020/12/29 13:23:30;;;;;;;;;;;;;;;;;;5051517;28;19916;-70
2020/12/29 13:25:56;;;;;;;;;;;;;;;;;;5051658;28;19932;-70
2020/12/29 13:28:22;;;;;;;;;;;;;;;;;;5049999;28;19951;-70
2020/12/29 13:30:47;;;;;;;;;;;;;;;;;;5049915;28;20465;-70
2020/12/29 13:33:13;;;;;;;;;;;;;;;;;;5049959;28;20078;-70
2020/12/29 13:35:39;;;;;;;;;;;;;;;;;;5051345;28;20006;-71
2020/12/29 13:38:05;;;;;;;;;;;;;;;;;;5051921;28;19909;-70
2020/12/29 13:40:31;;;;;;;;;;;;;;;;;;5056452;28;19940;-69
2020/12/29 13:42:57;;;;;;;;;;;;;;;;;;5052430;28;19959;-70
2020/12/29 13:45:23;;;;;;;;;;;;;;;;;;5058621;28;19951;-70
2020/12/29 13:47:49;;;;;;;;;;;;;;;;;;5054649;28;20641;-70
2020/12/29 13:50:15;;;;;;;;;;;;;;;;;;5051184;28;20004;-70
2020/12/29 13:52:41;;;;;;;;;;;;;;;;;;5051281;28;19915;-71
2020/12/29 13:55:07;;;;;;;;;;;;;;;;;;5051156;28;20527;-69
2020/12/29 13:57:33;;;;;;;;;;;;;;;;;;5050862;28;19951;-70
2020/12/29 13:59:58;;;;;;;;;;;;;;;;;;5050829;28;19964;-70
2020/12/29 14:02:24;;;;;;;;;;;;;;;;;;5050563;28;19952;-70
2020/12/29 14:04:50;;;;;;;;;;;;;;;;;;5057034;28;20010;-70
2020/12/29 14:07:16;;;;;;;;;;;;;;;;;;5054033;28;20627;-68
2020/12/29 14:09:42;;;;;;;;;;;;;;;;;;5048447;28;19919;-71
2020/12/29 14:12:08;;;;;;;;;;;;;;;;;;5043704;28;19919;-70
2020/12/29 14:14:34;;;;;;;;;;;;;;;;;;5039859;28;19952;-71
2020/12/29 14:17:00;;;;;;;;;;;;;;;;;;5030851;28;19971;-71
2020/12/29 14:19:26;;;;;;;;;;;;;;;;;;5036676;28;19913;-71
2020/12/29 14:21:52;;;;;;;;;;;;;;;;;;5049838;28;19940;-70
2020/12/29 14:24:18;;;;;;;;;;;;;;;;;;5035168;28;19920;-71
2020/12/29 14:26:43;;;;;;;;;;;;;;;;;;5034803;28;19909;-71
2020/12/29 14:29:09;;;;;;;;;;;;;;;;;;5033349;28;19968;-71
2020/12/29 14:31:35;;;;;;;;;;;;;;;;;;5036267;28;20015;-71
2020/12/29 14:34:01;;;;;;;;;;;;;;;;;;5052908;28;19995;-71
2020/12/29 14:36:27;;;;;;;;;;;;;;;;;;5054876;28;20368;-71
2020/12/29 14:38:53;;;;;;;;;;;;;;;;;;5060002;28;19956;-71
2020/12/29 14:41:19;;;;;;;;;;;;;;;;;;5054834;28;19960;-71
2020/12/29 14:43:46;;;;;;;;;;;;;;;;;;5054489;28;19909;-72
2020/12/29 14:46:12;;;;;;;;;;;;;;;;;;5054538;28;19948;-70
2020/12/29 14:48:39;;;;;;;;;;;;;;;;;;5054385;28;19960;-70
2020/12/29 14:51:05;;;;;;;;;;;;;;;;;;5054884;28;20438;-70
2020/12/29 14:53:31;;;;;;;;;;;;;;;;;;5054567;28;19992;-70
2020/12/29 14:55:57;;;;;;;;;;;;;;;;;;5054634;28;19971;-69
2020/12/29 14:58:23;;;;;;;;;;;;;;;;;;5061328;28;20004;-69
2020/12/29 15:00:49;;;;;;;;;;;;;;;;;;5069464;28;19919;-69
2020/12/29 15:03:14;;;;;;;;;;;;;;;;;;5073070;28;19990;-69
2020/12/29 15:05:40;;;;;;;;;;;;;;;;;;5074310;28;19995;-71
2020/12/29 15:08:06;;;;;;;;;;;;;;;;;;5074003;28;19952;-69
2020/12/29 15:10:32;;;;;;;;;;;;;;;;;;5068498;28;19940;-70
2020/12/29 15:12:58;;;;;;;;;;;;;;;;;;5060788;28;19963;-70
2020/12/29 15:15:25;;;;;;;;;;;;;;;;;;5073930;28;19920;-70
2020/12/29 15:17:51;;;;;;;;;;;;;;;;;;5073809;28;19915;-70
2020/12/29 15:20:17;;;;;;;;;;;;;;;;;;5074041;28;19913;-70
2020/12/29 15:22:43;;;;;;;;;;;;;;;;;;5073986;28;20296;-70
2020/12/29 15:25:09;;;;;;;;;;;;;;;;;;5073997;28;19908;-70
2020/12/29 15:27:35;;;;;;;;;;;;;;;;;;5073136;28;19952;-70
2020/12/29 15:30:01;;;;;;;;;;;;;;;;;;5072815;28;19956;-70
2020/12/29 15:32:27;;;;;;;;;;;;;;;;;;5071585;28;19952;-69
2020/12/29 15:34:53;;;;;;;;;;;;;;;;;;5073442;28;19999;-70
2020/12/29 15:37:19;;;;;;;;;;;;;;;;;;5066546;28;19960;-70
2020/12/29 15:39:45;;;;;;;;;;;;;;;;;;5065082;28;19948;-70
2020/12/29 15:42:10;;;;;;;;;;;;;;;;;;5073329;28;19940;-69
2020/12/29 15:44:36;;;;;;;;;;;;;;;;;;5065750;28;19967;-70
2020/12/29 15:47:02;;;;;;;;;;;;;;;;;;5053334;28;20366;-70
2020/12/29 15:49:28;;;;;;;;;;;;;;;;;;5051862;28;20008;-70
2020/12/29 15:51:54;;;;;;;;;;;;;;;;;;5051481;28;19955;-69
2020/12/29 15:54:20;;;;;;;;;;;;;;;;;;5048269;28;19959;-70
2020/12/29 15:56:46;;;;;;;;;;;;;;;;;;5059750;28;19908;-70
2020/12/29 15:59:12;;;;;;;;;;;;;;;;;;5071843;28;20439;-68
2020/12/29 16:01:38;;;;;;;;;;;;;;;;;;5051798;28;19949;-70
2020/12/29 16:04:04;;;;;;;;;;;;;;;;;;5060254;28;19897;-69
2020/12/29 16:06:30;;;;;;;;;;;;;;;;;;5076463;28;19909;-70
2020/12/29 16:08:56;;;;;;;;;;;;;;;;;;5074536;28;19917;-68
2020/12/29 16:11:22;;;;;;;;;;;;;;;;;;5061829;28;20327;-69
2020/12/29 16:13:48;;;;;;;;;;;;;;;;;;5052772;28;20356;-70
2020/12/29 16:16:14;;;;;;;;;;;;;;;;;;5052953;28;19913;-70
2020/12/29 16:18:40;;;;;;;;;;;;;;;;;;5052661;28;19962;-71
2020/12/29 16:21:06;;;;;;;;;;;;;;;;;;5052909;28;20383;-70
2020/12/29 16:23:31;;;;;;;;;;;;;;;;;;5052646;28;19986;-70
2020/12/29 16:25:57;;;;;;;;;;;;;;;;;;5051231;28;19917;-70
2020/12/29 16:28:23;;;;;;;;;;;;;;;;;;5051048;28;19956;-69
2020/12/29 16:30:49;;;;;;;;;;;;;;;;;;5051416;28;19960;-70
2020/12/29 16:33:15;;;;;;;;;;;;;;;;;;5052643;28;20379;-70
2020/12/29 16:35:41;;;;;;;;;;;;;;;;;;5052620;28;19908;-70
2020/12/29 16:38:07;;;;;;;;;;;;;;;;;;5049227;28;20476;-70